sensor_id;sensor_type;location;lat;lon;timestamp;P1;durP1;ratioP1;P2;durP2;ratioP2
41799;SDS011;27468;47.460;19.034;2024-02-23T00:00:30;2.60;;;1.95;;
41799;SDS011;27468;47.460;19.034;2024-02-23T00:02:55;2.90;;;2.13;;
41799;SDS011;27468;47.460;19.034;2024-02-23T00:05:22;2.93;;;2.00;;
41799;SDS011;27468;47.460;19.034;2024-02-23T00:07:48;3.00;;;2.03;;
41799;SDS011;27468;47.460;19.034;2024-02-23T00:10:13;3.20;;;2.00;;
41799;SDS011;27468;47.460;19.034;2024-02-23T00:12:39;2.75;;;2.13;;
41799;SDS011;27468;47.460;19.034;2024-02-23T00:15:04;2.57;;;2.10;;
41799;SDS011;27468;47.460;19.034;2024-02-23T00:17:30;3.33;;;2.20;;
41799;SDS011;27468;47.460;19.034;2024-02-23T00:19:55;3.40;;;2.00;;
41799;SDS011;27468;47.460;19.034;2024-02-23T00:22:20;3.20;;;2.05;;
41799;SDS011;27468;47.460;19.034;2024-02-23T00:24:46;2.95;;;2.03;;
41799;SDS011;27468;47.460;19.034;2024-02-23T00:27:11;2.53;;;1.90;;
41799;SDS011;27468;47.460;19.034;2024-02-23T00:29:37;2.65;;;2.10;;
41799;SDS011;27468;47.460;19.034;2024-02-23T00:32:03;3.00;;;2.20;;
41799;SDS011;27468;47.460;19.034;2024-02-23T00:34:28;3.47;;;2.10;;
41799;SDS011;27468;47.460;19.034;2024-02-23T00:36:56;3.35;;;2.22;;
41799;SDS011;27468;47.460;19.034;2024-02-23T00:39:22;3.23;;;2.27;;
41799;SDS011;27468;47.460;19.034;2024-02-23T00:41:48;2.60;;;2.10;;
41799;SDS011;27468;47.460;19.034;2024-02-23T00:44:13;3.33;;;2.30;;
41799;SDS011;27468;47.460;19.034;2024-02-23T00:46:38;3.42;;;2.25;;
41799;SDS011;27468;47.460;19.034;2024-02-23T00:49:04;3.28;;;2.20;;
41799;SDS011;27468;47.460;19.034;2024-02-23T00:51:30;3.33;;;2.30;;
41799;SDS011;27468;47.460;19.034;2024-02-23T00:53:56;3.53;;;2.20;;
41799;SDS011;27468;47.460;19.034;2024-02-23T00:56:21;3.90;;;2.60;;
41799;SDS011;27468;47.460;19.034;2024-02-23T00:58:47;4.40;;;2.57;;
41799;SDS011;27468;47.460;19.034;2024-02-23T01:01:12;3.70;;;2.70;;
41799;SDS011;27468;47.460;19.034;2024-02-23T01:03:37;3.97;;;2.45;;
41799;SDS011;27468;47.460;19.034;2024-02-23T01:06:03;3.47;;;2.55;;
41799;SDS011;27468;47.460;19.034;2024-02-23T01:08:28;2.95;;;2.40;;
41799;SDS011;27468;47.460;19.034;2024-02-23T01:10:53;2.75;;;2.45;;
41799;SDS011;27468;47.460;19.034;2024-02-23T01:13:19;3.10;;;2.50;;
41799;SDS011;27468;47.460;19.034;2024-02-23T01:15:44;3.57;;;2.60;;
41799;SDS011;27468;47.460;19.034;2024-02-23T01:18:09;3.77;;;2.80;;
41799;SDS011;27468;47.460;19.034;2024-02-23T01:20:36;3.17;;;2.63;;
41799;SDS011;27468;47.460;19.034;2024-02-23T01:23:01;4.72;;;2.60;;
41799;SDS011;27468;47.460;19.034;2024-02-23T01:25:27;3.53;;;2.53;;
41799;SDS011;27468;47.460;19.034;2024-02-23T01:27:52;3.50;;;2.77;;
41799;SDS011;27468;47.460;19.034;2024-02-23T01:30:17;3.27;;;2.77;;
41799;SDS011;27468;47.460;19.034;2024-02-23T01:32:43;4.40;;;3.00;;
41799;SDS011;27468;47.460;19.034;2024-02-23T01:35:09;3.57;;;2.90;;
41799;SDS011;27468;47.460;19.034;2024-02-23T01:37:35;4.27;;;3.10;;
41799;SDS011;27468;47.460;19.034;2024-02-23T01:40:00;4.00;;;3.10;;
41799;SDS011;27468;47.460;19.034;2024-02-23T01:42:26;5.00;;;3.20;;
41799;SDS011;27468;47.460;19.034;2024-02-23T01:44:51;4.03;;;3.10;;
41799;SDS011;27468;47.460;19.034;2024-02-23T01:47:17;4.40;;;3.30;;
41799;SDS011;27468;47.460;19.034;2024-02-23T01:49:43;5.27;;;3.30;;
41799;SDS011;27468;47.460;19.034;2024-02-23T01:52:10;4.28;;;3.20;;
41799;SDS011;27468;47.460;19.034;2024-02-23T01:54:36;4.55;;;3.10;;
41799;SDS011;27468;47.460;19.034;2024-02-23T01:57:02;3.92;;;3.17;;
41799;SDS011;27468;47.460;19.034;2024-02-23T01:59:28;4.45;;;3.10;;
41799;SDS011;27468;47.460;19.034;2024-02-23T02:01:54;4.70;;;3.50;;
41799;SDS011;27468;47.460;19.034;2024-02-23T02:04:19;4.67;;;3.27;;
41799;SDS011;27468;47.460;19.034;2024-02-23T02:06:48;3.73;;;3.13;;
41799;SDS011;27468;47.460;19.034;2024-02-23T02:09:14;4.45;;;3.17;;
41799;SDS011;27468;47.460;19.034;2024-02-23T02:11:46;3.80;;;2.97;;
41799;SDS011;27468;47.460;19.034;2024-02-23T02:14:15;4.68;;;3.20;;
41799;SDS011;27468;47.460;19.034;2024-02-23T02:16:41;4.50;;;3.15;;
41799;SDS011;27468;47.460;19.034;2024-02-23T02:19:06;3.93;;;3.07;;
41799;SDS011;27468;47.460;19.034;2024-02-23T02:21:32;4.63;;;3.17;;
41799;SDS011;27468;47.460;19.034;2024-02-23T02:23:58;3.70;;;3.00;;
41799;SDS011;27468;47.460;19.034;2024-02-23T02:26:23;4.00;;;2.87;;
41799;SDS011;27468;47.460;19.034;2024-02-23T02:28:49;4.67;;;3.10;;
41799;SDS011;27468;47.460;19.034;2024-02-23T02:31:14;4.20;;;3.00;;
41799;SDS011;27468;47.460;19.034;2024-02-23T02:33:40;4.80;;;2.93;;
41799;SDS011;27468;47.460;19.034;2024-02-23T02:36:06;4.13;;;3.00;;
41799;SDS011;27468;47.460;19.034;2024-02-23T02:38:31;5.27;;;3.20;;
41799;SDS011;27468;47.460;19.034;2024-02-23T02:40:58;3.83;;;3.10;;
41799;SDS011;27468;47.460;19.034;2024-02-23T02:43:25;4.80;;;3.10;;
41799;SDS011;27468;47.460;19.034;2024-02-23T02:45:50;4.70;;;3.10;;
41799;SDS011;27468;47.460;19.034;2024-02-23T02:48:16;4.22;;;3.15;;
41799;SDS011;27468;47.460;19.034;2024-02-23T02:50:41;3.87;;;2.93;;
41799;SDS011;27468;47.460;19.034;2024-02-23T02:53:07;4.00;;;3.20;;
41799;SDS011;27468;47.460;19.034;2024-02-23T02:55:32;3.63;;;2.90;;
41799;SDS011;27468;47.460;19.034;2024-02-23T02:57:57;4.67;;;3.13;;
41799;SDS011;27468;47.460;19.034;2024-02-23T03:00:23;4.20;;;3.10;;
41799;SDS011;27468;47.460;19.034;2024-02-23T03:02:49;4.82;;;3.08;;
41799;SDS011;27468;47.460;19.034;2024-02-23T03:05:14;4.33;;;3.30;;
41799;SDS011;27468;47.460;19.034;2024-02-23T03:07:40;4.30;;;3.40;;
41799;SDS011;27468;47.460;19.034;2024-02-23T03:10:06;4.30;;;3.50;;
41799;SDS011;27468;47.460;19.034;2024-02-23T03:12:31;4.25;;;3.42;;
41799;SDS011;27468;47.460;19.034;2024-02-23T03:14:57;4.57;;;3.40;;
41799;SDS011;27468;47.460;19.034;2024-02-23T03:17:22;4.90;;;3.27;;
41799;SDS011;27468;47.460;19.034;2024-02-23T03:19:48;5.30;;;3.60;;
41799;SDS011;27468;47.460;19.034;2024-02-23T03:22:15;4.97;;;3.65;;
41799;SDS011;27468;47.460;19.034;2024-02-23T03:24:40;4.50;;;3.70;;
41799;SDS011;27468;47.460;19.034;2024-02-23T03:27:06;5.43;;;3.90;;
41799;SDS011;27468;47.460;19.034;2024-02-23T03:29:32;5.13;;;3.93;;
41799;SDS011;27468;47.460;19.034;2024-02-23T03:31:57;4.87;;;3.60;;
41799;SDS011;27468;47.460;19.034;2024-02-23T03:34:23;4.95;;;3.50;;
41799;SDS011;27468;47.460;19.034;2024-02-23T03:36:48;5.00;;;4.20;;
41799;SDS011;27468;47.460;19.034;2024-02-23T03:39:13;5.72;;;3.72;;
41799;SDS011;27468;47.460;19.034;2024-02-23T03:41:39;5.05;;;3.80;;
41799;SDS011;27468;47.460;19.034;2024-02-23T03:44:04;7.60;;;3.88;;
41799;SDS011;27468;47.460;19.034;2024-02-23T03:46:30;5.55;;;3.92;;
41799;SDS011;27468;47.460;19.034;2024-02-23T03:48:55;5.50;;;3.80;;
41799;SDS011;27468;47.460;19.034;2024-02-23T03:51:21;4.70;;;3.78;;
41799;SDS011;27468;47.460;19.034;2024-02-23T03:53:46;5.13;;;4.10;;
41799;SDS011;27468;47.460;19.034;2024-02-23T03:56:12;5.13;;;3.60;;
41799;SDS011;27468;47.460;19.034;2024-02-23T03:58:37;4.20;;;3.30;;
41799;SDS011;27468;47.460;19.034;2024-02-23T04:01:02;4.60;;;3.43;;
41799;SDS011;27468;47.460;19.034;2024-02-23T04:03:28;4.90;;;3.60;;
41799;SDS011;27468;47.460;19.034;2024-02-23T04:05:53;4.30;;;3.30;;
41799;SDS011;27468;47.460;19.034;2024-02-23T04:08:19;5.17;;;3.63;;
41799;SDS011;27468;47.460;19.034;2024-02-23T04:10:44;4.53;;;3.33;;
41799;SDS011;27468;47.460;19.034;2024-02-23T04:13:09;4.53;;;3.33;;
41799;SDS011;27468;47.460;19.034;2024-02-23T04:15:38;4.32;;;3.50;;
41799;SDS011;27468;47.460;19.034;2024-02-23T04:18:04;4.30;;;3.30;;
41799;SDS011;27468;47.460;19.034;2024-02-23T04:20:30;6.03;;;3.50;;
41799;SDS011;27468;47.460;19.034;2024-02-23T04:22:55;5.60;;;3.40;;
41799;SDS011;27468;47.460;19.034;2024-02-23T04:25:21;4.07;;;3.30;;
41799;SDS011;27468;47.460;19.034;2024-02-23T04:27:46;3.92;;;3.20;;
41799;SDS011;27468;47.460;19.034;2024-02-23T04:30:11;5.43;;;3.70;;
41799;SDS011;27468;47.460;19.034;2024-02-23T04:32:38;4.90;;;3.40;;
41799;SDS011;27468;47.460;19.034;2024-02-23T04:35:04;4.90;;;3.70;;
41799;SDS011;27468;47.460;19.034;2024-02-23T04:37:30;4.75;;;3.50;;
41799;SDS011;27468;47.460;19.034;2024-02-23T04:39:55;4.95;;;3.70;;
41799;SDS011;27468;47.460;19.034;2024-02-23T04:42:20;5.25;;;3.60;;
41799;SDS011;27468;47.460;19.034;2024-02-23T04:44:46;5.00;;;3.80;;
41799;SDS011;27468;47.460;19.034;2024-02-23T04:47:11;4.57;;;3.50;;
41799;SDS011;27468;47.460;19.034;2024-02-23T04:49:36;3.97;;;3.30;;
41799;SDS011;27468;47.460;19.034;2024-02-23T04:52:02;4.53;;;2.90;;
41799;SDS011;27468;47.460;19.034;2024-02-23T04:54:28;4.13;;;3.00;;
41799;SDS011;27468;47.460;19.034;2024-02-23T04:56:53;4.23;;;3.10;;
41799;SDS011;27468;47.460;19.034;2024-02-23T04:59:18;3.60;;;2.87;;
41799;SDS011;27468;47.460;19.034;2024-02-23T05:01:44;3.73;;;2.80;;
41799;SDS011;27468;47.460;19.034;2024-02-23T05:04:09;3.83;;;2.60;;
41799;SDS011;27468;47.460;19.034;2024-02-23T05:06:34;3.95;;;2.75;;
41799;SDS011;27468;47.460;19.034;2024-02-23T05:09:00;4.60;;;2.70;;
41799;SDS011;27468;47.460;19.034;2024-02-23T05:11:26;3.13;;;2.40;;
41799;SDS011;27468;47.460;19.034;2024-02-23T05:13:51;3.30;;;2.55;;
41799;SDS011;27468;47.460;19.034;2024-02-23T05:16:17;3.40;;;2.60;;
41799;SDS011;27468;47.460;19.034;2024-02-23T05:18:42;3.70;;;2.90;;
41799;SDS011;27468;47.460;19.034;2024-02-23T05:21:08;3.53;;;2.63;;
41799;SDS011;27468;47.460;19.034;2024-02-23T05:23:34;4.57;;;2.70;;
41799;SDS011;27468;47.460;19.034;2024-02-23T05:26:00;3.75;;;2.70;;
41799;SDS011;27468;47.460;19.034;2024-02-23T05:28:25;3.30;;;2.70;;
41799;SDS011;27468;47.460;19.034;2024-02-23T05:30:51;3.50;;;2.70;;
41799;SDS011;27468;47.460;19.034;2024-02-23T05:33:16;4.33;;;2.50;;
41799;SDS011;27468;47.460;19.034;2024-02-23T05:35:45;3.60;;;2.53;;
41799;SDS011;27468;47.460;19.034;2024-02-23T05:38:10;2.92;;;2.47;;
41799;SDS011;27468;47.460;19.034;2024-02-23T05:40:36;3.50;;;2.53;;
41799;SDS011;27468;47.460;19.034;2024-02-23T05:43:01;3.90;;;2.70;;
41799;SDS011;27468;47.460;19.034;2024-02-23T05:45:26;3.72;;;2.63;;
41799;SDS011;27468;47.460;19.034;2024-02-23T05:47:52;3.63;;;2.40;;
41799;SDS011;27468;47.460;19.034;2024-02-23T05:50:17;2.85;;;2.33;;
41799;SDS011;27468;47.460;19.034;2024-02-23T05:52:43;4.03;;;2.50;;
41799;SDS011;27468;47.460;19.034;2024-02-23T05:55:08;4.65;;;3.03;;
41799;SDS011;27468;47.460;19.034;2024-02-23T05:57:34;3.53;;;2.70;;
41799;SDS011;27468;47.460;19.034;2024-02-23T05:59:59;4.57;;;2.93;;
41799;SDS011;27468;47.460;19.034;2024-02-23T06:02:25;4.17;;;3.10;;
41799;SDS011;27468;47.460;19.034;2024-02-23T06:04:50;4.30;;;3.30;;
41799;SDS011;27468;47.460;19.034;2024-02-23T06:07:16;4.93;;;3.47;;
41799;SDS011;27468;47.460;19.034;2024-02-23T06:09:41;3.93;;;3.10;;
41799;SDS011;27468;47.460;19.034;2024-02-23T06:12:07;4.57;;;3.05;;
41799;SDS011;27468;47.460;19.034;2024-02-23T06:14:33;4.45;;;3.42;;
41799;SDS011;27468;47.460;19.034;2024-02-23T06:16:59;4.35;;;3.30;;
41799;SDS011;27468;47.460;19.034;2024-02-23T06:19:24;5.03;;;3.90;;
41799;SDS011;27468;47.460;19.034;2024-02-23T06:21:49;5.80;;;3.80;;
41799;SDS011;27468;47.460;19.034;2024-02-23T06:24:15;4.63;;;3.30;;
41799;SDS011;27468;47.460;19.034;2024-02-23T06:26:42;5.10;;;3.50;;
41799;SDS011;27468;47.460;19.034;2024-02-23T06:29:07;4.57;;;3.50;;
41799;SDS011;27468;47.460;19.034;2024-02-23T06:31:36;4.78;;;3.35;;
41799;SDS011;27468;47.460;19.034;2024-02-23T06:34:04;5.35;;;3.78;;
41799;SDS011;27468;47.460;19.034;2024-02-23T06:36:30;5.30;;;3.97;;
41799;SDS011;27468;47.460;19.034;2024-02-23T06:38:56;6.97;;;4.03;;
41799;SDS011;27468;47.460;19.034;2024-02-23T06:41:21;6.10;;;4.40;;
41799;SDS011;27468;47.460;19.034;2024-02-23T06:43:46;7.43;;;5.70;;
41799;SDS011;27468;47.460;19.034;2024-02-23T06:46:12;7.73;;;5.20;;
41799;SDS011;27468;47.460;19.034;2024-02-23T06:48:37;7.40;;;5.23;;
41799;SDS011;27468;47.460;19.034;2024-02-23T06:51:06;7.05;;;5.10;;
41799;SDS011;27468;47.460;19.034;2024-02-23T06:53:35;7.10;;;4.80;;
41799;SDS011;27468;47.460;19.034;2024-02-23T06:56:00;5.93;;;4.97;;
41799;SDS011;27468;47.460;19.034;2024-02-23T06:58:26;7.25;;;5.35;;
41799;SDS011;27468;47.460;19.034;2024-02-23T07:00:52;7.45;;;5.22;;
41799;SDS011;27468;47.460;19.034;2024-02-23T07:03:17;7.80;;;5.80;;
41799;SDS011;27468;47.460;19.034;2024-02-23T07:05:43;8.03;;;6.00;;
41799;SDS011;27468;47.460;19.034;2024-02-23T07:08:08;7.40;;;6.00;;
41799;SDS011;27468;47.460;19.034;2024-02-23T07:10:34;10.13;;;6.40;;
41799;SDS011;27468;47.460;19.034;2024-02-23T07:12:59;7.80;;;6.00;;
41799;SDS011;27468;47.460;19.034;2024-02-23T07:15:24;8.23;;;6.40;;
41799;SDS011;27468;47.460;19.034;2024-02-23T07:17:51;7.72;;;6.47;;
41799;SDS011;27468;47.460;19.034;2024-02-23T07:20:17;8.05;;;6.25;;
41799;SDS011;27468;47.460;19.034;2024-02-23T07:22:45;7.95;;;6.03;;
41799;SDS011;27468;47.460;19.034;2024-02-23T07:25:11;7.43;;;5.90;;
41799;SDS011;27468;47.460;19.034;2024-02-23T07:27:40;7.90;;;6.15;;
41799;SDS011;27468;47.460;19.034;2024-02-23T07:30:05;9.03;;;6.70;;
41799;SDS011;27468;47.460;19.034;2024-02-23T07:32:31;7.23;;;5.93;;
41799;SDS011;27468;47.460;19.034;2024-02-23T07:34:57;7.27;;;5.70;;
41799;SDS011;27468;47.460;19.034;2024-02-23T07:37:22;8.13;;;5.73;;
41799;SDS011;27468;47.460;19.034;2024-02-23T07:39:47;7.60;;;5.30;;
41799;SDS011;27468;47.460;19.034;2024-02-23T07:42:13;8.60;;;6.00;;
41799;SDS011;27468;47.460;19.034;2024-02-23T07:44:43;7.63;;;5.68;;
41799;SDS011;27468;47.460;19.034;2024-02-23T07:47:08;8.17;;;5.90;;
41799;SDS011;27468;47.460;19.034;2024-02-23T07:49:34;7.40;;;5.83;;
41799;SDS011;27468;47.460;19.034;2024-02-23T07:51:59;6.90;;;5.53;;
41799;SDS011;27468;47.460;19.034;2024-02-23T07:54:25;6.77;;;5.27;;
41799;SDS011;27468;47.460;19.034;2024-02-23T07:56:50;7.40;;;5.50;;
41799;SDS011;27468;47.460;19.034;2024-02-23T07:59:15;8.20;;;5.53;;
41799;SDS011;27468;47.460;19.034;2024-02-23T08:01:40;7.30;;;5.43;;
41799;SDS011;27468;47.460;19.034;2024-02-23T08:04:06;7.67;;;5.60;;
41799;SDS011;27468;47.460;19.034;2024-02-23T08:06:31;7.03;;;5.80;;
41799;SDS011;27468;47.460;19.034;2024-02-23T08:08:57;6.57;;;5.30;;
41799;SDS011;27468;47.460;19.034;2024-02-23T08:11:22;7.23;;;5.73;;
41799;SDS011;27468;47.460;19.034;2024-02-23T08:13:48;6.57;;;5.57;;
41799;SDS011;27468;47.460;19.034;2024-02-23T08:16:15;8.93;;;6.43;;
41799;SDS011;27468;47.460;19.034;2024-02-23T08:18:41;7.43;;;5.85;;
41799;SDS011;27468;47.460;19.034;2024-02-23T08:21:06;8.37;;;6.17;;
41799;SDS011;27468;47.460;19.034;2024-02-23T08:23:32;6.97;;;5.88;;
41799;SDS011;27468;47.460;19.034;2024-02-23T08:25:57;8.73;;;6.37;;
41799;SDS011;27468;47.460;19.034;2024-02-23T08:28:23;7.57;;;5.90;;
41799;SDS011;27468;47.460;19.034;2024-02-23T08:30:49;7.83;;;6.60;;
41799;SDS011;27468;47.460;19.034;2024-02-23T08:33:14;8.57;;;7.00;;
41799;SDS011;27468;47.460;19.034;2024-02-23T08:35:39;7.03;;;6.30;;
41799;SDS011;27468;47.460;19.034;2024-02-23T08:38:05;8.87;;;6.70;;
41799;SDS011;27468;47.460;19.034;2024-02-23T08:40:30;9.13;;;7.17;;
41799;SDS011;27468;47.460;19.034;2024-02-23T08:42:56;8.77;;;6.63;;
41799;SDS011;27468;47.460;19.034;2024-02-23T08:45:21;9.87;;;6.90;;
41799;SDS011;27468;47.460;19.034;2024-02-23T08:47:47;10.60;;;7.23;;
41799;SDS011;27468;47.460;19.034;2024-02-23T08:50:12;9.40;;;7.43;;
41799;SDS011;27468;47.460;19.034;2024-02-23T08:52:37;8.47;;;7.50;;
41799;SDS011;27468;47.460;19.034;2024-02-23T08:55:03;11.77;;;8.27;;
41799;SDS011;27468;47.460;19.034;2024-02-23T08:57:28;9.20;;;7.40;;
41799;SDS011;27468;47.460;19.034;2024-02-23T08:59:54;10.50;;;8.00;;
41799;SDS011;27468;47.460;19.034;2024-02-23T09:02:22;9.60;;;7.75;;
41799;SDS011;27468;47.460;19.034;2024-02-23T09:04:48;9.20;;;8.03;;
41799;SDS011;27468;47.460;19.034;2024-02-23T09:07:13;10.30;;;8.00;;
41799;SDS011;27468;47.460;19.034;2024-02-23T09:09:38;10.50;;;7.87;;
41799;SDS011;27468;47.460;19.034;2024-02-23T09:12:04;10.77;;;7.90;;
41799;SDS011;27468;47.460;19.034;2024-02-23T09:14:31;9.63;;;7.32;;
41799;SDS011;27468;47.460;19.034;2024-02-23T09:16:58;7.93;;;6.88;;
41799;SDS011;27468;47.460;19.034;2024-02-23T09:19:23;7.80;;;6.73;;
41799;SDS011;27468;47.460;19.034;2024-02-23T09:21:48;8.33;;;6.87;;
41799;SDS011;27468;47.460;19.034;2024-02-23T09:24:14;7.30;;;6.00;;
41799;SDS011;27468;47.460;19.034;2024-02-23T09:26:39;8.77;;;6.20;;
41799;SDS011;27468;47.460;19.034;2024-02-23T09:29:05;9.27;;;6.83;;
41799;SDS011;27468;47.460;19.034;2024-02-23T09:31:30;9.20;;;6.70;;
41799;SDS011;27468;47.460;19.034;2024-02-23T09:33:56;7.78;;;5.75;;
41799;SDS011;27468;47.460;19.034;2024-02-23T09:36:22;7.00;;;5.90;;
41799;SDS011;27468;47.460;19.034;2024-02-23T09:38:48;7.10;;;6.13;;
41799;SDS011;27468;47.460;19.034;2024-02-23T09:41:18;7.65;;;6.70;;
41799;SDS011;27468;47.460;19.034;2024-02-23T09:43:44;8.05;;;6.35;;
41799;SDS011;27468;47.460;19.034;2024-02-23T09:46:11;7.88;;;5.95;;
41799;SDS011;27468;47.460;19.034;2024-02-23T09:48:38;8.88;;;7.15;;
41799;SDS011;27468;47.460;19.034;2024-02-23T09:51:04;8.20;;;6.57;;
41799;SDS011;27468;47.460;19.034;2024-02-23T09:53:31;8.02;;;6.38;;
41799;SDS011;27468;47.460;19.034;2024-02-23T09:55:59;6.50;;;5.47;;
41799;SDS011;27468;47.460;19.034;2024-02-23T09:58:25;8.48;;;6.35;;
41799;SDS011;27468;47.460;19.034;2024-02-23T10:00:54;7.72;;;6.57;;
41799;SDS011;27468;47.460;19.034;2024-02-23T10:03:22;8.05;;;6.30;;
41799;SDS011;27468;47.460;19.034;2024-02-23T10:05:51;8.73;;;6.20;;
41799;SDS011;27468;47.460;19.034;2024-02-23T10:08:16;9.63;;;7.13;;
41799;SDS011;27468;47.460;19.034;2024-02-23T10:10:41;9.83;;;7.73;;
41799;SDS011;27468;47.460;19.034;2024-02-23T10:13:07;8.43;;;5.80;;
41799;SDS011;27468;47.460;19.034;2024-02-23T10:15:33;8.25;;;6.38;;
41799;SDS011;27468;47.460;19.034;2024-02-23T10:17:58;8.13;;;6.90;;
41799;SDS011;27468;47.460;19.034;2024-02-23T10:20:23;7.73;;;6.50;;
41799;SDS011;27468;47.460;19.034;2024-02-23T10:22:49;6.93;;;6.23;;
41799;SDS011;27468;47.460;19.034;2024-02-23T10:25:15;8.23;;;7.07;;
41799;SDS011;27468;47.460;19.034;2024-02-23T10:27:40;8.20;;;6.60;;
41799;SDS011;27468;47.460;19.034;2024-02-23T10:30:07;8.55;;;7.10;;
41799;SDS011;27468;47.460;19.034;2024-02-23T10:32:36;8.10;;;7.30;;
41799;SDS011;27468;47.460;19.034;2024-02-23T10:35:03;9.20;;;6.95;;
41799;SDS011;27468;47.460;19.034;2024-02-23T10:37:34;8.43;;;6.65;;
41799;SDS011;27468;47.460;19.034;2024-02-23T10:40:00;8.07;;;6.35;;
41799;SDS011;27468;47.460;19.034;2024-02-23T10:42:27;9.30;;;6.43;;
41799;SDS011;27468;47.460;19.034;2024-02-23T10:44:58;8.55;;;6.93;;
41799;SDS011;27468;47.460;19.034;2024-02-23T10:47:26;10.80;;;7.65;;
41799;SDS011;27468;47.460;19.034;2024-02-23T10:49:53;9.60;;;6.30;;
41799;SDS011;27468;47.460;19.034;2024-02-23T10:52:19;8.30;;;5.95;;
41799;SDS011;27468;47.460;19.034;2024-02-23T10:54:48;8.98;;;6.20;;
41799;SDS011;27468;47.460;19.034;2024-02-23T10:57:16;8.23;;;5.85;;
41799;SDS011;27468;47.460;19.034;2024-02-23T10:59:45;7.57;;;5.68;;
41799;SDS011;27468;47.460;19.034;2024-02-23T11:02:12;6.55;;;5.55;;
41799;SDS011;27468;47.460;19.034;2024-02-23T11:04:42;8.03;;;6.53;;
41799;SDS011;27468;47.460;19.034;2024-02-23T11:07:20;9.45;;;7.13;;
41799;SDS011;27468;47.460;19.034;2024-02-23T11:09:51;10.38;;;7.03;;
41799;SDS011;27468;47.460;19.034;2024-02-23T11:12:29;9.10;;;6.70;;
41799;SDS011;27468;47.460;19.034;2024-02-23T11:14:58;9.25;;;7.65;;
41799;SDS011;27468;47.460;19.034;2024-02-23T11:17:31;9.93;;;7.80;;
41799;SDS011;27468;47.460;19.034;2024-02-23T11:19:58;9.85;;;7.65;;
41799;SDS011;27468;47.460;19.034;2024-02-23T11:22:24;10.77;;;7.70;;
41799;SDS011;27468;47.460;19.034;2024-02-23T11:24:53;8.40;;;6.90;;
41799;SDS011;27468;47.460;19.034;2024-02-23T11:27:24;9.13;;;7.03;;
41799;SDS011;27468;47.460;19.034;2024-02-23T11:30:05;10.90;;;8.02;;
41799;SDS011;27468;47.460;19.034;2024-02-23T11:32:39;12.15;;;8.55;;
41799;SDS011;27468;47.460;19.034;2024-02-23T11:35:17;12.20;;;9.00;;
41799;SDS011;27468;47.460;19.034;2024-02-23T11:37:56;11.60;;;8.10;;
41799;SDS011;27468;47.460;19.034;2024-02-23T11:40:34;8.65;;;6.00;;
41799;SDS011;27468;47.460;19.034;2024-02-23T11:43:00;9.70;;;7.23;;
41799;SDS011;27468;47.460;19.034;2024-02-23T11:45:27;9.88;;;6.93;;
41799;SDS011;27468;47.460;19.034;2024-02-23T11:47:53;9.25;;;7.00;;
41799;SDS011;27468;47.460;19.034;2024-02-23T11:50:19;8.40;;;6.70;;
41799;SDS011;27468;47.460;19.034;2024-02-23T11:52:45;9.03;;;7.00;;
41799;SDS011;27468;47.460;19.034;2024-02-23T11:55:11;9.25;;;7.20;;
41799;SDS011;27468;47.460;19.034;2024-02-23T11:57:36;7.97;;;6.07;;
41799;SDS011;27468;47.460;19.034;2024-02-23T12:00:04;7.57;;;6.15;;
41799;SDS011;27468;47.460;19.034;2024-02-23T12:02:32;6.32;;;5.43;;
41799;SDS011;27468;47.460;19.034;2024-02-23T12:05:00;6.82;;;5.00;;
41799;SDS011;27468;47.460;19.034;2024-02-23T12:07:26;7.27;;;5.20;;
41799;SDS011;27468;47.460;19.034;2024-02-23T12:09:54;4.85;;;4.32;;
41799;SDS011;27468;47.460;19.034;2024-02-23T12:12:19;5.03;;;3.80;;
41799;SDS011;27468;47.460;19.034;2024-02-23T12:14:45;4.53;;;3.70;;
41799;SDS011;27468;47.460;19.034;2024-02-23T12:17:10;5.43;;;3.73;;
41799;SDS011;27468;47.460;19.034;2024-02-23T12:19:38;4.65;;;3.80;;
41799;SDS011;27468;47.460;19.034;2024-02-23T12:22:05;4.83;;;3.70;;
41799;SDS011;27468;47.460;19.034;2024-02-23T12:24:30;4.17;;;3.70;;
41799;SDS011;27468;47.460;19.034;2024-02-23T12:26:55;4.67;;;3.70;;
41799;SDS011;27468;47.460;19.034;2024-02-23T12:29:21;4.53;;;4.03;;
41799;SDS011;27468;47.460;19.034;2024-02-23T12:31:47;4.80;;;3.90;;
41799;SDS011;27468;47.460;19.034;2024-02-23T12:34:13;4.35;;;3.90;;
41799;SDS011;27468;47.460;19.034;2024-02-23T12:36:39;6.00;;;4.40;;
41799;SDS011;27468;47.460;19.034;2024-02-23T12:39:04;5.47;;;4.32;;
41799;SDS011;27468;47.460;19.034;2024-02-23T12:41:30;5.30;;;4.10;;
41799;SDS011;27468;47.460;19.034;2024-02-23T12:43:55;6.43;;;4.63;;
41799;SDS011;27468;47.460;19.034;2024-02-23T12:46:21;6.77;;;5.33;;
41799;SDS011;27468;47.460;19.034;2024-02-23T12:48:46;7.57;;;5.97;;
41799;SDS011;27468;47.460;19.034;2024-02-23T12:51:11;7.47;;;6.37;;
41799;SDS011;27468;47.460;19.034;2024-02-23T12:58:29;8.65;;;6.78;;
41799;SDS011;27468;47.460;19.034;2024-02-23T13:00:58;8.43;;;7.00;;
41799;SDS011;27468;47.460;19.034;2024-02-23T13:03:24;8.07;;;6.65;;
41799;SDS011;27468;47.460;19.034;2024-02-23T13:05:51;8.82;;;6.90;;
41799;SDS011;27468;47.460;19.034;2024-02-23T13:08:17;9.57;;;7.73;;
41799;SDS011;27468;47.460;19.034;2024-02-23T13:10:43;9.77;;;7.60;;
41799;SDS011;27468;47.460;19.034;2024-02-23T13:13:08;11.30;;;7.90;;
41799;SDS011;27468;47.460;19.034;2024-02-23T13:15:34;9.32;;;7.70;;
41799;SDS011;27468;47.460;19.034;2024-02-23T13:18:01;10.40;;;8.07;;
41799;SDS011;27468;47.460;19.034;2024-02-23T13:20:27;9.00;;;7.85;;
41799;SDS011;27468;47.460;19.034;2024-02-23T13:22:53;11.33;;;8.90;;
41799;SDS011;27468;47.460;19.034;2024-02-23T13:25:18;11.57;;;9.27;;
41799;SDS011;27468;47.460;19.034;2024-02-23T13:27:43;12.10;;;9.23;;
41799;SDS011;27468;47.460;19.034;2024-02-23T13:30:09;12.17;;;9.17;;
41799;SDS011;27468;47.460;19.034;2024-02-23T13:32:34;11.13;;;9.15;;
41799;SDS011;27468;47.460;19.034;2024-02-23T13:35:00;13.60;;;10.77;;
41799;SDS011;27468;47.460;19.034;2024-02-23T13:37:29;11.33;;;9.53;;
41799;SDS011;27468;47.460;19.034;2024-02-23T13:39:54;12.17;;;9.90;;
41799;SDS011;27468;47.460;19.034;2024-02-23T13:42:20;13.25;;;10.77;;
41799;SDS011;27468;47.460;19.034;2024-02-23T13:44:45;12.55;;;10.52;;
41799;SDS011;27468;47.460;19.034;2024-02-23T13:47:11;12.40;;;10.07;;
41799;SDS011;27468;47.460;19.034;2024-02-23T13:49:37;12.57;;;9.93;;
41799;SDS011;27468;47.460;19.034;2024-02-23T13:52:02;11.97;;;9.70;;
41799;SDS011;27468;47.460;19.034;2024-02-23T13:54:27;12.37;;;9.77;;
41799;SDS011;27468;47.460;19.034;2024-02-23T13:56:53;12.00;;;9.93;;
41799;SDS011;27468;47.460;19.034;2024-02-23T13:59:18;13.10;;;10.20;;
41799;SDS011;27468;47.460;19.034;2024-02-23T14:01:45;13.32;;;10.23;;
41799;SDS011;27468;47.460;19.034;2024-02-23T14:04:10;13.43;;;10.63;;
41799;SDS011;27468;47.460;19.034;2024-02-23T14:06:36;13.03;;;11.07;;
41799;SDS011;27468;47.460;19.034;2024-02-23T14:09:01;14.10;;;11.37;;
41799;SDS011;27468;47.460;19.034;2024-02-23T14:11:28;15.77;;;11.95;;
41799;SDS011;27468;47.460;19.034;2024-02-23T14:13:54;16.13;;;12.57;;
41799;SDS011;27468;47.460;19.034;2024-02-23T14:16:20;15.63;;;12.23;;
41799;SDS011;27468;47.460;19.034;2024-02-23T14:18:45;15.23;;;12.30;;
41799;SDS011;27468;47.460;19.034;2024-02-23T14:21:10;14.80;;;12.03;;
41799;SDS011;27468;47.460;19.034;2024-02-23T14:23:36;14.03;;;11.33;;
41799;SDS011;27468;47.460;19.034;2024-02-23T14:26:04;15.57;;;11.77;;
41799;SDS011;27468;47.460;19.034;2024-02-23T14:28:30;13.98;;;11.82;;
41799;SDS011;27468;47.460;19.034;2024-02-23T14:30:55;15.10;;;12.17;;